Newberg, North Dakota
Current Conditions -  °F | °C
As of 2:13 AM on Thursday 29 Jan 2015 (Local Time) from KMIB Reporting Station
Overcast Overcast  
Wind Chill: 11°   Ceiling: 1900
Heat Index: 25°   Visibility: 10mi
Dew Point: 25°   Wind: 18mph
Humidity: 100%   Direction: 330°NNW
Pressure: 30.3"   Gusts: NA
Location:  48.6879°N, 101.011°W
Report Text: KMIB 290813Z AUTO 33016KT 10SM OVC019 M04/M04 A3030 RMK AO2
Loading
Personal Weather Stations






























Interactive Weather Map New forecast layout! Learn more

10-Day Weather Forecast

Advertisements
Track Severe Weather on mobile